This is the latest recevied weather packets stored in our database for station/object EA3HRE-10. If no packets are shown the sender has not sent any weather packets the latest 1 day(s).
| Time | Temp. | Humidity | Pressure | Rain* | Wind** | Luminosity | Snow |
|---|---|---|---|---|---|---|---|
| 1778114818 | 22.78° C | 49% | 1013.8 hPa | - | - | - | - |
| 1778113918 | 22.78° C | 48% | 1013.9 hPa | - | - | - | - |
| 1778107617 | 23.89° C | 46% | 1014 hPa | - | - | - | - |
| 1778106717 | 23.89° C | 46% | 1014 hPa | - | - | - | - |
| 1778101316 | 25.56° C | 42% | 1013.7 hPa | - | - | - | - |
| 1778100428 | 26.11° C | 42% | 1013.7 hPa | - | - | - | - |
| 1778100416 | 26.11° C | 42% | 1013.7 hPa | - | - | - | - |
| 1778099516 | 26.11° C | 42% | 1013.4 hPa | - | - | - | - |
| 1778098628 | 26.11° C | 43% | 1013.2 hPa | - | - | - | - |
| 1778097728 | 25.56° C | 43% | 1013.1 hPa | - | - | - | - |
| 1778095029 | 25° C | 43% | 1012.3 hPa | - | - | - | - |
| 1778095015 | 25° C | 43% | 1012.3 hPa | - | - | - | - |
| 1778092315 | 25° C | 43% | 1012 hPa | - | - | - | - |
| 1778086014 | 25.56° C | 40% | 1011 hPa | - | - | - | - |
| 1778085114 | 25.56° C | 42% | 1011 hPa | - | - | - | - |
| 1778084214 | 25° C | 42% | 1011 hPa | - | - | - | - |
| 1778083314 | 25.56° C | 40% | 1011 hPa | - | - | - | - |
| 1778079713 | 25.56° C | 40% | 1011.2 hPa | - | - | - | - |
| 1778077913 | 25° C | 40% | 1011.4 hPa | - | - | - | - |
| 1778077013 | 25° C | 40% | 1011.6 hPa | - | - | - | - |
| 1778070712 | 24.44° C | 40% | 1012.4 hPa | - | - | - | - |
| 1778069812 | 24.44° C | 39% | 1012.6 hPa | - | - | - | - |
| 1778068912 | 24.44° C | 39% | 1012.7 hPa | - | - | - | - |
| 1778063510 | 22.78° C | 41% | 1013 hPa | - | - | - | - |
| 1778062610 | 22.78° C | 36% | 1013.1 hPa | - | - | - | - |
* Rain since midnight (hover to see other rain measurements)
** Current wind speed in m/s (hover to see current wind gust speed)